createdAt,value
2018-11-28T00:02:04.271Z,20.40
2018-11-28T00:07:07.403Z,20.40
2018-11-28T00:12:10.540Z,20.30
2018-11-28T00:17:13.644Z,20.30
2018-11-28T00:22:16.743Z,20.30
2018-11-28T00:27:19.851Z,20.30
2018-11-28T00:32:22.963Z,20.30
2018-11-28T00:37:26.059Z,20.30
2018-11-28T00:42:30.919Z,20.30
2018-11-28T00:47:34.021Z,20.30
2018-11-28T00:52:37.316Z,20.30
2018-11-28T00:57:40.480Z,20.30
2018-11-28T01:02:43.823Z,20.30
2018-11-28T01:07:48.816Z,20.30
2018-11-28T01:12:52.731Z,20.30
2018-11-28T01:17:55.855Z,20.30
2018-11-28T01:22:58.979Z,20.30
2018-11-28T01:28:02.123Z,20.30
2018-11-28T01:33:05.784Z,20.30
2018-11-28T01:38:08.924Z,20.30
2018-11-28T01:43:12.096Z,20.30
2018-11-28T01:48:15.262Z,20.40
2018-11-28T01:53:18.402Z,20.30
2018-11-28T01:58:21.531Z,20.30
2018-11-28T02:03:24.775Z,20.30
2018-11-28T02:08:27.920Z,20.30
2018-11-28T02:13:31.052Z,20.30
2018-11-28T02:18:34.191Z,20.30
2018-11-28T02:23:37.340Z,20.30
2018-11-28T02:28:40.481Z,20.30
2018-11-28T02:33:43.623Z,20.30
2018-11-28T02:38:46.765Z,20.30
2018-11-28T02:43:50.025Z,20.30
2018-11-28T02:48:53.548Z,20.40
2018-11-28T02:53:56.689Z,20.40
2018-11-28T02:58:59.835Z,20.40
2018-11-28T03:04:02.979Z,20.40
2018-11-28T03:09:07.796Z,20.50
2018-11-28T03:14:10.943Z,20.50
2018-11-28T03:19:14.060Z,20.50
2018-11-28T03:24:17.183Z,20.40
2018-11-28T03:29:20.287Z,20.40
2018-11-28T03:34:23.392Z,20.40
2018-11-28T03:39:26.500Z,20.40
2018-11-28T03:44:29.621Z,20.40
2018-11-28T03:49:32.735Z,20.40
2018-11-28T03:54:35.839Z,20.40
2018-11-28T03:59:38.952Z,20.40
2018-11-28T04:04:42.053Z,20.40
2018-11-28T04:09:45.151Z,20.40
2018-11-28T04:14:48.264Z,20.30
2018-11-28T04:19:51.391Z,20.30
2018-11-28T04:24:54.509Z,20.30
2018-11-28T04:29:57.611Z,20.30
2018-11-28T04:35:00.715Z,20.20
2018-11-28T04:40:05.060Z,20.20
2018-11-28T04:45:11.631Z,20.20
2018-11-28T04:50:14.747Z,20.20
2018-11-28T04:55:18.660Z,20.20
2018-11-28T05:00:23.931Z,20.20
2018-11-28T05:05:27.035Z,20.20
2018-11-28T05:10:30.699Z,20.10
2018-11-28T05:15:33.894Z,20.20
2018-11-28T05:20:37.026Z,20.10
2018-11-28T05:25:40.167Z,20.10
2018-11-28T05:30:43.331Z,20.10
2018-11-28T05:35:46.459Z,20.10
2018-11-28T05:40:49.595Z,20.10
2018-11-28T05:45:52.723Z,20.10
2018-11-28T05:50:55.867Z,20.10
2018-11-28T05:55:59.020Z,20.10
2018-11-28T06:01:02.147Z,20.10
2018-11-28T06:06:05.514Z,20.10
2018-11-28T06:11:09.726Z,20.10
2018-11-28T06:16:12.858Z,20.10
2018-11-28T06:21:15.986Z,20.10
2018-11-28T06:26:19.130Z,20.00
2018-11-28T06:31:22.271Z,20.00
2018-11-28T06:36:25.398Z,20.00
2018-11-28T06:41:28.586Z,20.00
2018-11-28T06:46:31.857Z,19.90
2018-11-28T06:51:34.991Z,20.00
2018-11-28T06:56:38.203Z,20.00
2018-11-28T07:01:41.335Z,19.90
2018-11-28T07:06:44.479Z,19.90
2018-11-28T07:11:47.623Z,20.00
2018-11-28T07:16:50.795Z,20.00
2018-11-28T07:21:53.920Z,20.00
2018-11-28T07:26:57.141Z,20.00
2018-11-28T07:32:00.274Z,20.00
2018-11-28T07:37:03.384Z,20.00
2018-11-28T07:42:07.044Z,20.00
2018-11-28T07:47:10.151Z,20.00
2018-11-28T07:52:13.255Z,20.00
2018-11-28T07:57:16.376Z,20.00
2018-11-28T08:02:19.471Z,20.00
2018-11-28T08:07:22.589Z,20.00
2018-11-28T08:12:25.695Z,20.00
2018-11-28T08:17:29.965Z,20.00
2018-11-28T08:22:31.900Z,20.00
2018-11-28T08:27:34.996Z,20.00
2018-11-28T08:32:38.099Z,20.00
2018-11-28T08:37:41.202Z,20.00
2018-11-28T08:42:44.307Z,20.00
2018-11-28T08:47:48.368Z,20.00
2018-11-28T08:52:51.471Z,20.00
2018-11-28T08:57:54.596Z,20.00
2018-11-28T09:02:58.219Z,20.00
2018-11-28T09:08:01.326Z,20.00
2018-11-28T09:13:04.536Z,20.10
2018-11-28T09:18:07.605Z,20.10
2018-11-28T09:23:10.739Z,20.10
2018-11-28T09:28:13.875Z,20.10
2018-11-28T09:33:17.020Z,20.10
2018-11-28T09:38:21.394Z,20.10
2018-11-28T09:43:23.320Z,20.10
2018-11-28T09:48:26.471Z,20.10
2018-11-28T09:53:29.625Z,20.00
2018-11-28T09:58:32.763Z,20.00
2018-11-28T10:03:35.896Z,20.10
2018-11-28T10:08:39.044Z,20.10
2018-11-28T10:13:42.268Z,20.10
2018-11-28T10:18:45.378Z,20.10
2018-11-28T10:23:48.475Z,20.10
2018-11-28T10:28:51.656Z,20.10
2018-11-28T10:33:54.756Z,20.10
2018-11-28T10:38:57.859Z,20.10
2018-11-28T10:44:00.987Z,20.10
2018-11-28T10:49:04.087Z,20.10
2018-11-28T10:54:07.298Z,20.10
2018-11-28T10:59:10.395Z,20.10
2018-11-28T11:04:15.099Z,20.10
2018-11-28T11:09:23.615Z,20.10
2018-11-28T11:14:32.245Z,20.10
2018-11-28T11:19:35.360Z,20.10
2018-11-28T11:24:38.549Z,20.10
2018-11-28T11:29:41.607Z,20.20
2018-11-28T11:34:44.755Z,20.20
2018-11-28T11:39:47.963Z,20.10
2018-11-28T11:44:51.192Z,20.20
2018-11-28T11:49:54.304Z,20.20
2018-11-28T11:54:57.419Z,20.20
2018-11-28T12:00:02.012Z,20.30
2018-11-28T12:05:04.055Z,20.30
2018-11-28T12:10:10.399Z,20.30
2018-11-28T12:15:15.338Z,20.30
2018-11-28T12:20:24.392Z,20.30
2018-11-28T12:25:27.527Z,20.30
2018-11-28T12:30:30.661Z,20.30
2018-11-28T12:35:33.858Z,20.30
2018-11-28T12:40:37.232Z,20.30
2018-11-28T12:45:43.856Z,20.30
2018-11-28T12:50:46.994Z,20.20
2018-11-28T12:55:50.147Z,20.30
2018-11-28T13:00:53.408Z,20.20
2018-11-28T13:05:56.596Z,20.20
2018-11-28T13:11:00.087Z,20.20
2018-11-28T13:16:03.307Z,20.20
2018-11-28T13:21:06.531Z,20.20
2018-11-28T13:26:09.671Z,20.20
2018-11-28T13:31:12.815Z,20.20
2018-11-28T13:36:16.075Z,20.20
2018-11-28T13:41:19.196Z,20.20
2018-11-28T13:46:22.340Z,20.10
2018-11-28T13:51:26.010Z,20.10
2018-11-28T13:56:58.214Z,20.10
2018-11-28T14:01:32.459Z,20.10
2018-11-28T14:06:35.591Z,20.10
2018-11-28T14:11:38.846Z,20.10
2018-11-28T14:16:42.023Z,20.10
2018-11-28T14:21:45.231Z,20.10
2018-11-28T14:26:48.431Z,20.00
2018-11-28T14:31:51.652Z,20.10
2018-11-28T14:36:54.852Z,20.10
2018-11-28T14:41:57.980Z,20.10
2018-11-28T14:47:01.224Z,20.10
2018-11-28T14:52:04.567Z,20.10
2018-11-28T14:57:07.714Z,20.20
2018-11-28T15:02:10.831Z,20.20
2018-11-28T15:07:14.018Z,20.20
2018-11-28T15:12:17.239Z,20.30
2018-11-28T15:17:20.395Z,20.30
2018-11-28T15:22:23.579Z,20.40
2018-11-28T15:27:26.735Z,20.40
2018-11-28T15:32:29.895Z,20.40
2018-11-28T15:37:33.099Z,20.50
2018-11-28T15:42:36.571Z,20.60
2018-11-28T15:47:39.723Z,20.60
2018-11-28T15:52:42.984Z,20.70
2018-11-28T15:57:46.259Z,20.70
2018-11-28T16:02:49.480Z,20.80
2018-11-28T16:07:52.672Z,20.80
2018-11-28T16:12:55.879Z,20.80
2018-11-28T16:17:59.047Z,20.80
2018-11-28T16:23:04.258Z,20.80
2018-11-28T16:28:05.871Z,20.90
2018-11-28T16:33:09.271Z,20.90
2018-11-28T16:38:12.391Z,20.90
2018-11-28T16:43:15.557Z,20.90
2018-11-28T16:48:18.769Z,20.90
2018-11-28T16:53:21.927Z,20.90
2018-11-28T16:58:25.137Z,20.90
2018-11-28T17:03:28.353Z,20.90
2018-11-28T17:08:31.567Z,20.90
2018-11-28T17:13:34.780Z,20.90
2018-11-28T17:18:38.015Z,20.70
2018-11-28T17:23:41.176Z,20.70
2018-11-28T17:28:44.327Z,20.70
2018-11-28T17:33:47.569Z,20.80
2018-11-28T17:45:59.411Z,21.50
2018-11-28T17:51:01.968Z,20.80
2018-11-28T17:56:04.500Z,22.20
2018-11-28T18:01:07.062Z,25.80
2018-11-28T18:06:10.204Z,22.40
2018-11-28T18:11:15.317Z,21.40
2018-11-28T18:16:18.555Z,20.70
2018-11-28T18:21:21.687Z,20.40
2018-11-28T18:26:25.452Z,20.40
2018-11-28T18:31:28.571Z,20.40
2018-11-28T18:36:31.892Z,20.40
2018-11-28T18:41:35.667Z,20.50
2018-11-28T18:46:38.809Z,20.60
2018-11-28T18:51:42.020Z,20.60
2018-11-28T18:56:45.135Z,20.60
2018-11-28T19:01:48.467Z,20.60
2018-11-28T19:06:51.447Z,20.60
2018-11-28T19:11:54.648Z,20.60
2018-11-28T19:16:57.883Z,20.60
2018-11-28T19:22:02.115Z,20.70
2018-11-28T19:27:05.490Z,20.70
2018-11-28T19:32:08.611Z,20.80
2018-11-28T19:37:11.855Z,20.80
2018-11-28T19:42:14.974Z,20.80
2018-11-28T19:47:18.079Z,20.70
2018-11-28T19:52:21.183Z,20.70
2018-11-28T19:57:24.365Z,20.70
2018-11-28T20:02:27.471Z,20.70
2018-11-28T20:07:30.692Z,20.60
2018-11-28T20:12:33.807Z,20.40
2018-11-28T20:17:37.058Z,20.30
2018-11-28T20:22:40.270Z,20.30
2018-11-28T20:27:46.789Z,20.20
2018-11-28T20:32:50.053Z,20.20
2018-11-28T20:37:53.255Z,20.20
2018-11-28T20:42:56.623Z,20.10
2018-11-28T20:47:59.863Z,20.10
2018-11-28T20:53:11.226Z,20.10
2018-11-28T20:58:14.375Z,20.00
2018-11-28T21:03:17.620Z,20.00
2018-11-28T21:08:20.826Z,20.00
2018-11-28T21:13:24.005Z,20.00
2018-11-28T21:18:27.195Z,19.90
2018-11-28T21:23:30.404Z,19.90
2018-11-28T21:28:33.615Z,19.90
2018-11-28T21:33:36.827Z,20.00
2018-11-28T21:38:40.047Z,19.90
2018-11-28T21:43:43.245Z,20.00
2018-11-28T21:48:46.456Z,20.10
2018-11-28T21:53:49.563Z,20.30
2018-11-28T21:58:52.768Z,20.30
2018-11-28T22:03:55.980Z,20.40
2018-11-28T22:08:59.183Z,20.40
2018-11-28T22:14:02.295Z,20.40
2018-11-28T22:19:06.056Z,20.40
2018-11-28T22:24:09.175Z,20.50
2018-11-28T22:29:12.336Z,20.50
2018-11-28T22:34:15.450Z,20.50
2018-11-28T22:39:18.636Z,20.50
2018-11-28T22:44:21.859Z,20.50
2018-11-28T22:49:24.972Z,20.50
2018-11-28T22:54:28.165Z,20.50
2018-11-28T22:59:31.379Z,20.40
2018-11-28T23:04:34.596Z,20.40
2018-11-28T23:09:37.810Z,20.50
2018-11-28T23:14:41.005Z,20.50
2018-11-28T23:19:44.158Z,20.50
2018-11-28T23:24:47.371Z,20.50
2018-11-28T23:29:50.663Z,20.50
2018-11-28T23:34:53.899Z,20.50
2018-11-28T23:39:57.055Z,20.50
2018-11-28T23:45:00.297Z,20.50
2018-11-28T23:50:03.511Z,20.50
2018-11-28T23:55:38.651Z,20.50
